createdAt,value
2018-02-12T00:01:14.941Z,16.80
2018-02-12T00:03:43.192Z,16.87
2018-02-12T00:06:11.437Z,15.50
2018-02-12T00:08:39.608Z,17.30
2018-02-12T00:11:07.864Z,17.67
2018-02-12T00:13:36.113Z,18.33
2018-02-12T00:16:05.136Z,17.90
2018-02-12T00:18:33.397Z,18.70
2018-02-12T00:21:01.617Z,17.23
2018-02-12T00:23:29.861Z,16.07
2018-02-12T00:25:59.320Z,16.63
2018-02-12T00:28:27.535Z,18.40
2018-02-12T00:30:55.784Z,21.20
2018-02-12T00:33:24.784Z,18.53
2018-02-12T00:35:53.775Z,17.70
2018-02-12T00:38:22.799Z,17.80
2018-02-12T00:40:51.056Z,16.07
2018-02-12T00:43:19.259Z,18.97
2018-02-12T00:45:47.453Z,15.90
2018-02-12T00:48:15.835Z,17.43
2018-02-12T00:50:44.043Z,19.83
2018-02-12T00:53:13.137Z,18.07
2018-02-12T00:55:42.138Z,18.80
2018-02-12T00:58:11.129Z,16.33
2018-02-12T01:00:40.115Z,19.97
2018-02-12T01:03:09.255Z,15.83
2018-02-12T01:05:37.471Z,17.17
2018-02-12T01:08:05.672Z,18.47
2018-02-12T01:10:34.696Z,18.63
2018-02-12T01:13:02.972Z,17.10
2018-02-12T01:15:31.217Z,16.83
2018-02-12T01:18:00.300Z,18.47
2018-02-12T01:20:29.287Z,17.20
2018-02-12T01:22:57.600Z,19.10
2018-02-12T01:25:25.922Z,15.93
2018-02-12T01:27:54.147Z,18.20
2018-02-12T01:30:22.346Z,17.33
2018-02-12T01:32:50.566Z,17.00
2018-02-12T01:35:18.756Z,16.37
2018-02-12T01:37:47.730Z,17.80
2018-02-12T01:40:15.960Z,17.73
2018-02-12T01:42:44.280Z,22.77
2018-02-12T01:45:12.511Z,17.60
2018-02-12T01:47:40.736Z,16.13
2018-02-12T01:50:18.567Z,17.10
2018-02-12T01:52:47.040Z,17.03
2018-02-12T01:55:16.145Z,18.73
2018-02-12T01:57:44.379Z,18.40
2018-02-12T02:00:12.616Z,22.17
2018-02-12T02:02:40.815Z,18.67
2018-02-12T02:05:09.076Z,18.03
2018-02-12T02:07:38.075Z,16.27
2018-02-12T02:10:06.316Z,16.47
2018-02-12T02:12:34.505Z,14.53
2018-02-12T02:15:02.826Z,20.90
2018-02-12T02:17:31.080Z,16.13
2018-02-12T02:19:59.300Z,15.43
2018-02-12T02:22:28.294Z,15.87
2018-02-12T02:24:57.325Z,16.33
2018-02-12T02:27:25.511Z,14.37
2018-02-12T02:29:53.734Z,20.50
2018-02-12T02:32:23.075Z,17.03
2018-02-12T02:34:51.280Z,17.80
2018-02-12T02:37:19.768Z,16.17
2018-02-12T02:39:47.974Z,15.70
2018-02-12T02:42:16.972Z,16.80
2018-02-12T02:44:45.344Z,14.63
2018-02-12T02:47:14.316Z,19.97
2018-02-12T02:49:42.622Z,16.83
2018-02-12T02:52:11.710Z,15.37
2018-02-12T02:54:40.712Z,15.97
2018-02-12T02:57:08.937Z,18.63
2018-02-12T02:59:37.199Z,16.50
2018-02-12T03:02:05.416Z,15.43
2018-02-12T03:04:33.621Z,14.53
2018-02-12T03:07:01.941Z,17.53
2018-02-12T03:09:30.176Z,14.23
2018-02-12T03:11:58.405Z,14.27
2018-02-12T03:14:26.625Z,14.10
2018-02-12T03:16:54.858Z,13.13
2018-02-12T03:19:23.052Z,13.53
2018-02-12T03:21:52.076Z,13.83
2018-02-12T03:24:20.792Z,12.60
2018-02-12T03:26:49.738Z,10.97
2018-02-12T03:29:18.858Z,11.97
2018-02-12T03:31:47.719Z,11.93
2018-02-12T03:34:16.793Z,12.70
2018-02-12T03:36:45.055Z,11.90
2018-02-12T03:39:13.544Z,11.50
2018-02-12T03:41:41.819Z,12.20
2018-02-12T03:44:10.119Z,11.10
2018-02-12T03:46:38.383Z,12.03
2018-02-12T03:49:06.592Z,11.40
2018-02-12T03:51:34.815Z,10.47
2018-02-12T03:54:03.011Z,11.07
2018-02-12T03:56:32.060Z,12.03
2018-02-12T03:59:00.297Z,13.33
2018-02-12T04:01:29.645Z,12.13
2018-02-12T04:03:57.941Z,11.43
2018-02-12T04:06:26.252Z,12.20
2018-02-12T04:08:55.386Z,11.57
2018-02-12T04:11:23.800Z,11.70
2018-02-12T04:13:52.072Z,11.87
2018-02-12T04:16:20.765Z,13.17
2018-02-12T04:18:48.930Z,12.13
2018-02-12T04:21:17.151Z,12.03
2018-02-12T04:23:45.348Z,11.83
2018-02-12T04:26:13.639Z,11.90
2018-02-12T04:28:43.089Z,11.23
2018-02-12T04:31:12.166Z,12.43
2018-02-12T04:33:40.416Z,13.07
2018-02-12T04:36:08.673Z,12.47
2018-02-12T04:38:36.860Z,11.03
2018-02-12T04:41:05.203Z,11.87
2018-02-12T04:43:33.456Z,11.97
2018-02-12T04:46:01.762Z,11.90
2018-02-12T04:48:30.083Z,11.97
2018-02-12T04:51:00.725Z,12.90
2018-02-12T04:53:28.928Z,11.53
2018-02-12T04:55:57.877Z,12.07
2018-02-12T04:58:26.306Z,11.90
2018-02-12T05:00:56.140Z,11.10
2018-02-12T05:03:24.571Z,11.60
2018-02-12T05:05:52.872Z,11.20
2018-02-12T05:08:21.919Z,11.83
2018-02-12T05:10:50.112Z,10.87
2018-02-12T05:13:18.451Z,12.40
2018-02-12T05:15:46.643Z,10.97
2018-02-12T05:18:14.847Z,12.63
2018-02-12T05:20:43.102Z,12.17
2018-02-12T05:23:11.501Z,12.53
2018-02-12T05:25:40.061Z,12.30
2018-02-12T05:28:08.331Z,11.27
2018-02-12T05:30:36.528Z,12.00
2018-02-12T05:33:04.875Z,12.83
2018-02-12T05:35:33.265Z,13.30
2018-02-12T05:38:01.478Z,13.60
2018-02-12T05:40:29.682Z,12.47
2018-02-12T05:42:57.908Z,11.97
2018-02-12T05:45:26.144Z,10.77
2018-02-12T05:47:54.841Z,11.07
2018-02-12T05:50:23.088Z,12.33
2018-02-12T05:52:51.296Z,13.17
2018-02-12T05:55:19.489Z,11.60
2018-02-12T05:57:47.753Z,14.70
2018-02-12T06:00:16.012Z,12.23
2018-02-12T06:02:44.208Z,13.97
2018-02-12T06:05:12.473Z,14.53
2018-02-12T06:07:40.677Z,12.90
2018-02-12T06:10:08.885Z,14.17
2018-02-12T06:12:37.129Z,12.27
2018-02-12T06:15:05.335Z,11.70
2018-02-12T06:17:33.597Z,12.47
2018-02-12T06:20:02.666Z,11.73
2018-02-12T06:22:30.921Z,12.60
2018-02-12T06:24:59.167Z,12.90
2018-02-12T06:27:27.406Z,11.77
2018-02-12T06:29:55.709Z,11.73
2018-02-12T06:32:23.929Z,11.43
2018-02-12T06:34:52.245Z,12.17
2018-02-12T06:37:20.537Z,11.17
2018-02-12T06:39:49.528Z,11.80
2018-02-12T06:42:18.745Z,12.23
2018-02-12T06:44:47.052Z,11.80
2018-02-12T06:47:15.252Z,11.73
2018-02-12T06:49:43.582Z,12.13
2018-02-12T06:52:11.785Z,12.33
2018-02-12T06:54:39.985Z,14.07
2018-02-12T06:57:09.028Z,12.97
2018-02-12T06:59:37.320Z,12.13
2018-02-12T07:02:05.528Z,12.40
2018-02-12T07:04:33.837Z,11.73
2018-02-12T07:07:02.183Z,11.93
2018-02-12T07:09:30.414Z,13.00
2018-02-12T07:11:58.691Z,12.43
2018-02-12T07:14:26.968Z,12.43
2018-02-12T07:16:56.581Z,13.17
2018-02-12T07:19:24.838Z,12.57
2018-02-12T07:21:53.784Z,12.00
2018-02-12T07:24:21.997Z,14.30
2018-02-12T07:26:50.296Z,13.60
2018-02-12T07:29:18.580Z,12.00
2018-02-12T07:31:47.532Z,12.60
2018-02-12T07:34:16.025Z,13.10
2018-02-12T07:36:44.729Z,12.17
2018-02-12T07:39:13.098Z,12.37
2018-02-12T07:41:41.395Z,12.97
2018-02-12T07:44:09.588Z,11.90
2018-02-12T07:46:37.816Z,11.23
2018-02-12T07:49:06.096Z,12.57
2018-02-12T07:51:34.339Z,12.30
2018-02-12T07:54:02.589Z,11.97
2018-02-12T07:56:30.768Z,12.20
2018-02-12T07:58:58.982Z,11.13
2018-02-12T08:01:28.316Z,11.40
2018-02-12T08:03:56.577Z,10.87
2018-02-12T08:06:24.876Z,11.50
2018-02-12T08:08:53.092Z,12.60
2018-02-12T08:11:21.404Z,11.73
2018-02-12T08:13:50.361Z,10.70
2018-02-12T08:16:18.616Z,11.10
2018-02-12T08:18:48.062Z,11.33
2018-02-12T08:21:17.044Z,11.53
2018-02-12T08:23:45.284Z,11.13
2018-02-12T08:26:13.549Z,11.50
2018-02-12T08:28:41.715Z,11.40
2018-02-12T08:31:09.928Z,11.20
2018-02-12T08:33:40.588Z,11.53
2018-02-12T08:36:09.648Z,11.70
2018-02-12T08:38:37.871Z,11.23
2018-02-12T08:41:06.860Z,11.03
2018-02-12T08:43:35.831Z,11.37
2018-02-12T08:46:04.103Z,10.17
2018-02-12T08:48:32.364Z,10.90
2018-02-12T08:51:00.610Z,10.33
2018-02-12T08:53:28.833Z,11.13
2018-02-12T08:55:57.216Z,10.70
2018-02-12T08:58:25.412Z,10.83
2018-02-12T09:00:54.371Z,10.67
2018-02-12T09:03:22.655Z,11.00
2018-02-12T09:05:50.888Z,11.23
2018-02-12T09:08:19.112Z,10.70
2018-02-12T09:10:47.380Z,10.77
2018-02-12T09:13:15.654Z,10.60
2018-02-12T09:15:43.911Z,10.70
2018-02-12T09:18:12.220Z,10.10
2018-02-12T09:20:40.404Z,9.90
2018-02-12T09:23:09.396Z,10.00
2018-02-12T09:25:38.394Z,10.17
2018-02-12T09:28:07.410Z,10.00
2018-02-12T09:30:35.612Z,10.20
2018-02-12T09:33:03.817Z,10.07
2018-02-12T09:35:32.509Z,10.43
2018-02-12T09:38:00.824Z,10.37
2018-02-12T09:40:29.393Z,10.37
2018-02-12T09:42:58.700Z,9.57
2018-02-12T09:45:26.907Z,10.40
2018-02-12T09:47:55.214Z,10.10
2018-02-12T09:50:23.401Z,9.87
2018-02-12T09:52:51.610Z,10.90
2018-02-12T09:55:20.776Z,11.50
2018-02-12T09:57:49.745Z,10.50
2018-02-12T10:00:18.152Z,11.40
2018-02-12T10:02:47.193Z,10.50
2018-02-12T10:05:15.417Z,10.47
2018-02-12T10:07:44.504Z,11.03
2018-02-12T10:10:12.808Z,9.33
2018-02-12T10:12:41.791Z,10.97
2018-02-12T10:15:10.028Z,9.87
2018-02-12T10:17:38.269Z,11.23
2018-02-12T10:20:06.472Z,9.67
2018-02-12T10:22:34.712Z,10.47
2018-02-12T10:25:03.743Z,11.17
2018-02-12T10:27:31.964Z,10.77
2018-02-12T10:30:00.161Z,10.33
2018-02-12T10:32:29.216Z,10.33
2018-02-12T10:34:57.473Z,10.77
2018-02-12T10:37:25.756Z,10.27
2018-02-12T10:39:54.056Z,10.53
2018-02-12T10:42:22.272Z,11.00
2018-02-12T10:44:50.460Z,11.03
2018-02-12T10:47:18.844Z,11.00
2018-02-12T10:49:47.116Z,10.67
2018-02-12T10:52:15.341Z,11.20
2018-02-12T10:54:43.552Z,10.67
2018-02-12T10:57:11.761Z,10.90
2018-02-12T10:59:39.960Z,11.23
2018-02-12T11:02:08.261Z,11.20
2018-02-12T11:04:37.216Z,10.10
2018-02-12T11:07:05.412Z,11.43
2018-02-12T11:09:34.456Z,10.63
2018-02-12T11:12:02.683Z,11.13
2018-02-12T11:14:30.884Z,10.97
2018-02-12T11:16:59.140Z,10.67
2018-02-12T11:19:28.106Z,11.00
2018-02-12T11:21:56.299Z,10.20
2018-02-12T11:24:24.587Z,10.27
2018-02-12T11:26:53.579Z,10.60
2018-02-12T11:29:22.662Z,11.50
2018-02-12T11:31:50.902Z,11.00
2018-02-12T11:34:19.151Z,10.03
2018-02-12T11:36:47.348Z,11.37
2018-02-12T11:39:15.677Z,10.77
2018-02-12T11:41:43.884Z,10.57
2018-02-12T11:44:12.098Z,11.27
2018-02-12T11:46:40.336Z,10.10
2018-02-12T11:49:08.561Z,10.40
2018-02-12T11:51:36.766Z,10.63
2018-02-12T11:54:04.980Z,10.00
2018-02-12T11:56:33.225Z,10.30
2018-02-12T11:59:01.440Z,11.10
2018-02-12T12:01:29.764Z,11.20
2018-02-12T12:03:57.972Z,11.60
2018-02-12T12:06:26.235Z,11.80
2018-02-12T12:08:55.226Z,11.07
2018-02-12T12:11:23.453Z,10.73
2018-02-12T12:13:51.708Z,11.30
2018-02-12T12:16:19.985Z,11.63
2018-02-12T12:18:48.190Z,10.80
2018-02-12T12:21:16.417Z,11.27
2018-02-12T12:23:44.728Z,11.07
2018-02-12T12:26:13.064Z,10.63
2018-02-12T12:28:41.308Z,11.07
2018-02-12T12:31:10.286Z,11.43
2018-02-12T12:33:38.499Z,9.73
2018-02-12T12:36:06.684Z,9.10
2018-02-12T12:38:35.580Z,9.10
2018-02-12T12:41:04.065Z,8.40
2018-02-12T12:43:32.351Z,7.50
2018-02-12T12:46:00.736Z,6.60
2018-02-12T12:48:28.932Z,6.63
2018-02-12T12:50:57.172Z,6.50
2018-02-12T12:53:25.419Z,6.90
2018-02-12T12:55:54.428Z,7.53
2018-02-12T12:58:22.616Z,7.30
2018-02-12T13:00:50.875Z,8.53
2018-02-12T13:03:20.022Z,8.47
2018-02-12T13:05:48.200Z,8.60
2018-02-12T13:08:16.432Z,8.70
2018-02-12T13:10:45.376Z,8.50
2018-02-12T13:13:13.719Z,8.70
2018-02-12T13:15:42.015Z,8.80
2018-02-12T13:18:11.832Z,7.70
2018-02-12T13:20:40.052Z,6.93
2018-02-12T13:23:08.376Z,7.07
2018-02-12T13:25:36.576Z,7.63
2018-02-12T13:28:04.795Z,7.43
2018-02-12T13:30:33.016Z,8.47
2018-02-12T13:33:01.200Z,8.20
2018-02-12T13:35:29.492Z,8.87
2018-02-12T13:37:58.544Z,8.93
2018-02-12T13:40:26.800Z,8.67
2018-02-12T13:42:54.993Z,8.70
2018-02-12T13:45:23.350Z,9.20
2018-02-12T13:47:51.591Z,9.33
2018-02-12T13:50:20.572Z,9.70
2018-02-12T13:52:48.846Z,9.90
2018-02-12T13:55:17.030Z,11.20
2018-02-12T13:57:46.003Z,10.40
2018-02-12T14:00:14.533Z,10.63
2018-02-12T14:02:42.792Z,10.37
2018-02-12T14:05:11.744Z,10.10
2018-02-12T14:07:39.988Z,10.43
2018-02-12T14:10:08.196Z,9.97
2018-02-12T14:12:36.400Z,10.93
2018-02-12T14:15:05.576Z,10.53
2018-02-12T14:17:33.890Z,10.80
2018-02-12T14:20:02.085Z,9.63
2018-02-12T14:22:30.417Z,10.70
2018-02-12T14:24:58.798Z,11.03
2018-02-12T14:27:27.151Z,11.90
2018-02-12T14:29:55.373Z,10.40
2018-02-12T14:32:24.434Z,10.17
2018-02-12T14:34:52.637Z,11.10
2018-02-12T14:37:23.776Z,10.40
2018-02-12T14:39:52.008Z,10.50
2018-02-12T14:42:20.196Z,9.47
2018-02-12T14:44:48.524Z,10.60
2018-02-12T14:47:16.724Z,10.03
2018-02-12T14:49:45.002Z,11.47
2018-02-12T14:52:13.285Z,10.87
2018-02-12T14:54:41.500Z,12.53
2018-02-12T14:57:10.546Z,12.23
2018-02-12T14:59:38.827Z,11.40
2018-02-12T15:02:07.024Z,12.27
2018-02-12T15:04:35.789Z,11.47
2018-02-12T15:07:04.097Z,12.67
2018-02-12T15:09:32.392Z,12.47
2018-02-12T15:12:01.468Z,13.20
2018-02-12T15:14:29.800Z,12.50
2018-02-12T15:16:58.024Z,13.50
2018-02-12T15:19:26.248Z,12.33
2018-02-12T15:21:54.456Z,13.23
2018-02-12T15:24:22.656Z,13.10
2018-02-12T15:26:51.620Z,13.50
2018-02-12T15:29:19.937Z,13.20
2018-02-12T15:31:48.191Z,12.70
2018-02-12T15:34:16.528Z,12.53
2018-02-12T15:36:44.840Z,12.17
2018-02-12T15:39:13.044Z,11.43
2018-02-12T15:41:42.029Z,11.47
2018-02-12T15:44:11.136Z,11.33
2018-02-12T15:46:40.155Z,11.10
2018-02-12T15:49:08.356Z,10.77
2018-02-12T15:51:36.577Z,11.10
2018-02-12T15:54:05.549Z,11.60
2018-02-12T15:56:33.933Z,11.47
2018-02-12T15:59:02.373Z,12.07
2018-02-12T16:01:30.604Z,12.50
2018-02-12T16:03:59.570Z,13.20
2018-02-12T16:06:27.957Z,12.07
2018-02-12T16:08:56.166Z,12.90
2018-02-12T16:11:24.417Z,12.93
2018-02-12T16:13:52.600Z,13.10
2018-02-12T16:16:21.564Z,15.13
2018-02-12T16:18:49.760Z,14.43
2018-02-12T16:21:19.974Z,14.17
2018-02-12T16:23:48.189Z,13.17
2018-02-12T16:26:16.528Z,13.43
2018-02-12T16:28:44.788Z,14.50
2018-02-12T16:31:13.021Z,13.37
2018-02-12T16:33:41.224Z,15.27
2018-02-12T16:36:09.470Z,14.87
2018-02-12T16:38:37.682Z,14.47
2018-02-12T16:41:05.920Z,14.50
2018-02-12T16:43:34.195Z,15.37
2018-02-12T16:46:02.407Z,15.27
2018-02-12T16:48:30.665Z,15.63
2018-02-12T16:50:58.923Z,15.67
2018-02-12T16:53:27.145Z,14.53
2018-02-12T16:55:55.352Z,16.33
2018-02-12T16:58:24.372Z,15.93
2018-02-12T17:00:52.580Z,14.83
2018-02-12T17:03:20.777Z,16.00
2018-02-12T17:05:49.844Z,15.50
2018-02-12T17:08:18.044Z,16.97
2018-02-12T17:10:47.013Z,15.40
2018-02-12T17:13:15.349Z,16.10
2018-02-12T17:15:43.563Z,15.80
2018-02-12T17:18:11.765Z,16.43
2018-02-12T17:20:40.760Z,17.27
2018-02-12T17:23:09.777Z,16.47
2018-02-12T17:25:38.086Z,16.37
2018-02-12T17:28:06.364Z,17.00
2018-02-12T17:30:34.720Z,16.97
2018-02-12T17:33:03.000Z,17.67
2018-02-12T17:35:31.587Z,17.23
2018-02-12T17:37:59.828Z,17.20
2018-02-12T17:40:28.796Z,18.23
2018-02-12T17:42:57.012Z,18.60
2018-02-12T17:45:25.234Z,16.33
2018-02-12T17:47:53.438Z,19.73
2018-02-12T17:50:21.668Z,19.90
2018-02-12T17:52:49.912Z,18.67
2018-02-12T17:55:18.884Z,21.03
2018-02-12T17:57:48.009Z,19.53
2018-02-12T18:00:16.477Z,20.80
2018-02-12T18:02:45.449Z,19.10
2018-02-12T18:05:13.996Z,19.43
2018-02-12T18:07:42.189Z,20.53
2018-02-12T18:10:10.428Z,18.47
2018-02-12T18:12:38.742Z,19.77
2018-02-12T18:15:07.459Z,20.77
2018-02-12T18:17:37.126Z,21.83
2018-02-12T18:20:05.396Z,19.27
2018-02-12T18:22:34.008Z,20.17
2018-02-12T18:25:02.201Z,22.60
2018-02-12T18:27:31.215Z,21.37
2018-02-12T18:29:59.457Z,20.03
2018-02-12T18:32:27.660Z,21.87
2018-02-12T18:34:57.160Z,20.23
2018-02-12T18:37:26.439Z,24.00
2018-02-12T18:39:55.616Z,19.03
2018-02-12T18:42:23.966Z,22.53
2018-02-12T18:44:52.429Z,19.83
2018-02-12T18:47:22.250Z,17.60
2018-02-12T18:49:50.527Z,17.57
2018-02-12T18:52:18.732Z,16.57
2018-02-12T18:54:47.880Z,16.40
2018-02-12T18:57:16.130Z,15.77
2018-02-12T18:59:44.379Z,17.77
2018-02-12T19:02:12.571Z,18.17
2018-02-12T19:04:40.850Z,18.17
2018-02-12T19:07:09.095Z,18.23
2018-02-12T19:09:37.604Z,16.63
2018-02-12T19:12:05.831Z,19.23
2018-02-12T19:14:34.211Z,19.23
2018-02-12T19:17:02.533Z,17.73
2018-02-12T19:19:30.892Z,18.33
2018-02-12T19:21:59.922Z,19.07
2018-02-12T19:24:28.147Z,18.47
2018-02-12T19:26:56.408Z,18.27
2018-02-12T19:29:24.629Z,17.80
2018-02-12T19:31:52.893Z,19.67
2018-02-12T19:34:21.214Z,16.73
2018-02-12T19:36:50.362Z,17.13
2018-02-12T19:39:18.571Z,17.77
2018-02-12T19:41:46.961Z,17.90
2018-02-12T19:44:15.163Z,17.87
2018-02-12T19:46:43.378Z,20.03
2018-02-12T19:49:11.604Z,18.33
2018-02-12T19:51:39.873Z,18.27
2018-02-12T19:54:08.073Z,19.00
2018-02-12T19:56:36.432Z,16.80
2018-02-12T19:59:04.658Z,18.87
2018-02-12T20:01:32.968Z,20.13
2018-02-12T20:04:02.000Z,17.53
2018-02-12T20:06:30.199Z,21.60
2018-02-12T20:08:58.391Z,20.93
2018-02-12T20:11:26.784Z,18.57
2018-02-12T20:13:55.760Z,19.43
2018-02-12T20:16:23.965Z,20.90
2018-02-12T20:18:53.012Z,19.30
2018-02-12T20:21:21.203Z,20.47
2018-02-12T20:23:49.408Z,19.90
2018-02-12T20:26:18.465Z,19.53
2018-02-12T20:28:46.670Z,20.83
2018-02-12T20:31:14.912Z,18.37
2018-02-12T20:33:43.264Z,19.23
2018-02-12T20:36:13.458Z,18.47
2018-02-12T20:38:42.014Z,18.30
2018-02-12T20:41:10.258Z,18.97
2018-02-12T20:43:38.466Z,19.70
2018-02-12T20:46:06.718Z,18.43
2018-02-12T20:48:34.992Z,18.27
2018-02-12T20:51:03.184Z,18.23
2018-02-12T20:53:31.413Z,18.00
2018-02-12T20:56:00.450Z,19.83
2018-02-12T20:58:28.726Z,18.63
2018-02-12T21:03:22.791Z,19.10
2018-02-12T21:05:50.990Z,19.03
2018-02-12T21:08:19.252Z,18.90
2018-02-12T21:10:47.527Z,20.03
2018-02-12T21:13:16.097Z,18.37
2018-02-12T21:15:44.435Z,19.80
2018-02-12T21:18:12.737Z,19.80
2018-02-12T21:20:41.750Z,19.13
2018-02-12T21:23:10.062Z,20.20
2018-02-12T21:25:38.402Z,19.53
2018-02-12T21:28:06.652Z,20.77
2018-02-12T21:30:35.621Z,19.10
2018-02-12T21:33:04.013Z,19.17
2018-02-12T21:35:33.002Z,21.57
2018-02-12T21:38:01.227Z,20.90
2018-02-12T21:40:29.518Z,18.67
2018-02-12T21:42:57.773Z,21.90
2018-02-12T21:45:25.991Z,20.20
2018-02-12T21:47:54.216Z,20.80
2018-02-12T21:50:22.428Z,21.93
2018-02-12T21:52:50.676Z,20.40
2018-02-12T21:55:19.707Z,20.03
2018-02-12T21:57:48.905Z,21.13
2018-02-12T22:00:17.245Z,21.90
2018-02-12T22:02:46.120Z,20.13
2018-02-12T22:05:16.512Z,22.20
2018-02-12T22:07:44.759Z,21.50
2018-02-12T22:10:13.004Z,20.33
2018-02-12T22:12:41.204Z,18.80
2018-02-12T22:15:09.449Z,19.40
2018-02-12T22:17:37.733Z,19.97
2018-02-12T22:20:05.927Z,20.37
2018-02-12T22:22:34.158Z,19.53
2018-02-12T22:25:02.528Z,19.00
2018-02-12T22:27:31.570Z,19.30
2018-02-12T22:30:00.573Z,20.40
2018-02-12T22:32:28.814Z,22.50
2018-02-12T22:34:57.812Z,21.20
2018-02-12T22:37:26.798Z,21.50
2018-02-12T22:39:55.821Z,19.97
2018-02-12T22:42:24.052Z,20.13
2018-02-12T22:44:53.013Z,20.70
2018-02-12T22:47:21.440Z,20.93
2018-02-12T22:49:49.721Z,19.77
2018-02-12T22:52:18.712Z,19.73
2018-02-12T22:54:47.816Z,19.93
2018-02-12T22:57:16.033Z,18.93
2018-02-12T22:59:44.349Z,18.77
2018-02-12T23:02:12.573Z,18.83
2018-02-12T23:04:40.816Z,19.33
2018-02-12T23:07:09.012Z,19.60
2018-02-12T23:09:37.245Z,17.87
2018-02-12T23:12:05.756Z,22.07
2018-02-12T23:14:34.710Z,18.37
2018-02-12T23:17:08.496Z,20.70
2018-02-12T23:19:36.709Z,21.87
2018-02-12T23:22:05.694Z,18.80
2018-02-12T23:24:33.919Z,18.03
2018-02-12T23:27:02.108Z,21.50
2018-02-12T23:29:30.380Z,20.43
2018-02-12T23:31:59.684Z,21.50
2018-02-12T23:34:27.889Z,20.40
2018-02-12T23:36:56.116Z,21.23
2018-02-12T23:39:24.388Z,21.20
2018-02-12T23:41:52.575Z,20.80
2018-02-12T23:44:20.848Z,21.40
2018-02-12T23:46:49.123Z,19.73
2018-02-12T23:49:17.368Z,21.20
2018-02-12T23:51:46.144Z,19.27
2018-02-12T23:54:25.336Z,20.17
2018-02-12T23:56:53.533Z,19.67
2018-02-12T23:59:21.738Z,21.00
